Terminal Aerodrome Forecast
Issued by NWS Cleveland, OH

Home | Current Version | Previous Version | Text Only | Print | Product List | Glossary Off
Versions: 1 2 3 4 5 6 7 8 9 10 11 12 13 14 15 16 17 18 19 20 21 22 23 24 25 26

682
FTUS41 KCLE 081004 AAA
TAFMFD
TAF AMD
KMFD 081004Z 0810/0906 20008KT P6SM VCSH SCT009 OVC035
     FM081600 24006KT 5SM -RASN BR OVC006
     FM082100 27012KT 3SM BR OVC012=

USA.gov is the U.S. government's official web portal to all federal, state and local government web resources and services.